AU-0111 weather

Olinda (DSE) Helibase
Olinda / Mt Dandenong, Victoria, Australia

Public forecast

Using degrees Celsius for public forecast. Weather courtesy of forecast.io.

METAR (pilot weather report)

Closest report is Melbourne Essendon Airport, 23.9 nm (44.2 km) WNW. Retrieved 2019/03/19 07:30 UTC (0 seconds ago):

YMEN 190730Z AUTO 20013KT 9999 // OVC010 20/18 Q1014

TAF (pilot weather forecast)

Forecast is more than 12 hours old.

Closest forecast is Melbourne International Airport, 27.7 nm (51.3 km) WNW. Retrieved 2019/03/18 18:39 UTC (13 hours ago):

TAF YMML 181704Z 1818/1924 17006KT 9999 BKN008 FM182300 17010KT 9999 BKN014 FM190100 19012KT 9999 FEW020 BKN030 FM190900 19008KT 9999 -DZ FEW012 BKN020 FM191200 20008KT 9999 -DZ BKN010 FM192300 20008KT 9999 FEW010 BKN016 INTER 1818/1823 6000 -DZ BKN007 TEMPO 1913/1921 5000 -DZ BKN005